createdAt,value
2019-02-02T00:03:46.739Z,22.60
2019-02-02T00:09:50.602Z,24.27
2019-02-02T00:12:32.900Z,22.73
2019-02-02T00:15:22.459Z,23.97
2019-02-02T00:18:04.957Z,23.10
2019-02-02T00:20:54.502Z,21.20
2019-02-02T00:23:36.658Z,22.80
2019-02-02T00:26:26.235Z,23.37
2019-02-02T00:29:08.712Z,20.57
2019-02-02T00:31:58.257Z,18.90
2019-02-02T00:34:40.119Z,21.07
2019-02-02T00:38:07.819Z,22.93
2019-02-02T00:40:50.373Z,21.17
2019-02-02T00:43:39.903Z,19.50
2019-02-02T00:46:21.905Z,23.93
2019-02-02T00:52:19.361Z,17.73
2019-02-02T00:58:01.995Z,20.93
2019-02-02T01:00:53.648Z,23.80
2019-02-02T01:03:43.159Z,21.73
2019-02-02T01:06:25.734Z,23.30
2019-02-02T01:12:27.176Z,18.00
2019-02-02T01:15:09.424Z,22.43
2019-02-02T01:17:58.966Z,22.83
2019-02-02T01:20:41.415Z,22.00
2019-02-02T01:23:30.959Z,19.83
2019-02-02T01:26:12.848Z,24.00
2019-02-02T01:29:16.362Z,19.13
2019-02-02T01:31:46.066Z,20.27
2019-02-02T01:37:22.842Z,21.67
2019-02-02T01:46:36.806Z,25.53
2019-02-02T01:49:26.537Z,19.87
2019-02-02T01:52:09.129Z,22.30
2019-02-02T01:54:58.679Z,21.60
2019-02-02T01:57:41.077Z,19.33
2019-02-02T02:01:10.665Z,22.00
2019-02-02T02:03:53.145Z,22.40
2019-02-02T02:06:42.679Z,20.80
2019-02-02T02:12:33.507Z,21.70
2019-02-02T02:15:15.867Z,20.87
2019-02-02T02:18:05.777Z,17.67
2019-02-02T02:20:48.037Z,19.80
2019-02-02T02:26:44.565Z,19.63
2019-02-02T02:32:35.440Z,18.53
2019-02-02T02:35:18.006Z,20.43
2019-02-02T02:38:07.872Z,25.93
2019-02-02T02:40:50.526Z,21.13
2019-02-02T02:43:40.136Z,20.80
2019-02-02T02:46:29.696Z,18.47
2019-02-02T02:49:12.047Z,21.03
2019-02-02T02:52:01.614Z,18.27
2019-02-02T02:54:51.108Z,21.20
2019-02-02T02:57:33.538Z,17.83
2019-02-02T03:03:53.995Z,19.47
2019-02-02T03:13:34.402Z,18.07
2019-02-02T03:16:17.067Z,19.83
2019-02-02T03:19:06.813Z,16.63
2019-02-02T03:21:50.683Z,16.90
2019-02-02T03:24:40.594Z,17.10
2019-02-02T03:27:23.186Z,20.07
2019-02-02T03:30:53.327Z,17.67
2019-02-02T03:33:35.826Z,17.50
2019-02-02T03:36:25.371Z,16.87
2019-02-02T03:39:11.097Z,20.20
2019-02-02T03:42:19.505Z,16.13
2019-02-02T03:45:01.704Z,17.17
2019-02-02T03:48:31.188Z,15.30
2019-02-02T03:51:13.459Z,17.33
2019-02-02T03:54:07.908Z,18.33
2019-02-02T03:56:48.284Z,16.57
2019-02-02T03:59:30.274Z,18.77
2019-02-02T04:02:38.836Z,20.13
2019-02-02T04:05:21.710Z,19.87
2019-02-02T04:08:11.228Z,20.67
2019-02-02T04:10:53.837Z,19.23
2019-02-02T04:14:02.218Z,18.23
2019-02-02T04:16:44.721Z,17.33
2019-02-02T04:19:34.220Z,18.80
2019-02-02T04:22:16.693Z,21.43
2019-02-02T04:28:14.028Z,17.73
2019-02-02T04:34:04.195Z,19.63
2019-02-02T04:36:46.783Z,17.83
2019-02-02T04:39:55.208Z,21.43
2019-02-02T04:42:37.458Z,22.63
2019-02-02T04:45:27.007Z,23.70
2019-02-02T04:48:09.336Z,21.60
2019-02-02T04:50:58.878Z,24.60
2019-02-02T04:53:41.475Z,23.27
2019-02-02T04:56:31.048Z,26.97
2019-02-02T04:59:13.116Z,28.30
2019-02-02T05:02:02.642Z,24.17
2019-02-02T05:04:44.648Z,23.80
2019-02-02T05:07:34.182Z,26.37
2019-02-02T05:10:17.036Z,22.30
2019-02-02T05:13:06.573Z,25.23
2019-02-02T05:15:50.080Z,24.83
2019-02-02T05:22:00.942Z,27.50
2019-02-02T05:24:42.640Z,30.17
2019-02-02T05:27:32.184Z,29.70
2019-02-02T05:30:18.895Z,28.63
2019-02-02T05:33:08.475Z,25.00
2019-02-02T05:35:50.561Z,34.70
2019-02-02T05:38:40.146Z,31.37
2019-02-02T05:41:22.725Z,31.67
2019-02-02T05:44:12.263Z,35.83
2019-02-02T05:46:54.811Z,39.97
2019-02-02T05:50:03.221Z,36.57
2019-02-02T05:52:44.931Z,33.00
2019-02-02T05:55:29.153Z,33.37
2019-02-02T05:58:18.691Z,33.73
2019-02-02T06:01:01.132Z,38.43
2019-02-02T06:04:09.532Z,41.00
2019-02-02T06:06:51.219Z,47.70
2019-02-02T06:09:40.753Z,44.03
2019-02-02T06:12:23.421Z,47.87
2019-02-02T06:18:20.808Z,41.70
2019-02-02T06:21:10.314Z,44.13
2019-02-02T06:23:52.391Z,54.57
2019-02-02T06:32:57.964Z,56.60
2019-02-02T06:35:40.280Z,55.90
2019-02-02T06:41:36.971Z,56.37
2019-02-02T06:44:26.524Z,58.27
2019-02-02T06:47:35.961Z,57.43
2019-02-02T06:50:18.096Z,48.17
2019-02-02T06:53:07.611Z,56.93
2019-02-02T06:55:49.305Z,61.13
2019-02-02T06:58:38.891Z,54.13
2019-02-02T07:01:20.980Z,64.43
2019-02-02T07:07:24.715Z,73.20
2019-02-02T07:10:07.657Z,75.23
2019-02-02T07:16:05.319Z,63.27
2019-02-02T07:18:54.880Z,76.10
2019-02-02T07:21:44.484Z,85.77
2019-02-02T07:30:36.646Z,49.50
2019-02-02T07:33:19.917Z,77.80
2019-02-02T07:36:09.561Z,79.03
2019-02-02T07:38:52.477Z,74.17
2019-02-02T07:41:34.689Z,60.40
2019-02-02T07:44:24.196Z,56.93
2019-02-02T07:47:09.133Z,64.90
2019-02-02T07:49:57.518Z,74.20
2019-02-02T07:52:39.663Z,58.73
2019-02-02T07:55:48.195Z,89.73
2019-02-02T07:58:34.868Z,55.13
2019-02-02T08:04:31.643Z,50.27
2019-02-02T08:07:14.513Z,50.53
2019-02-02T08:16:18.027Z,53.40
2019-02-02T08:22:21.377Z,50.53
2019-02-02T08:25:03.368Z,47.43
2019-02-02T08:27:55.585Z,42.93
2019-02-02T08:30:37.997Z,40.10
2019-02-02T08:33:27.799Z,40.53
2019-02-02T08:36:16.144Z,33.60
2019-02-02T08:39:00.157Z,30.23
2019-02-02T08:41:50.836Z,30.83
2019-02-02T08:44:33.716Z,31.17
2019-02-02T08:47:23.495Z,24.10
2019-02-02T08:50:07.142Z,56.67
2019-02-02T08:52:56.685Z,32.83
2019-02-02T08:55:39.413Z,36.00
2019-02-02T08:58:28.972Z,24.10
2019-02-02T09:01:11.481Z,25.57
2019-02-02T09:03:54.230Z,26.00
2019-02-02T09:06:43.772Z,22.07
2019-02-02T09:09:26.320Z,29.43
2019-02-02T09:12:15.802Z,28.87
2019-02-02T09:14:59.298Z,27.57
2019-02-02T09:20:56.106Z,22.97
2019-02-02T09:23:45.829Z,13.67
2019-02-02T09:26:35.461Z,13.27
2019-02-02T09:29:18.017Z,20.53
2019-02-02T09:32:07.521Z,14.07
2019-02-02T09:34:50.130Z,13.60
2019-02-02T09:40:47.724Z,11.10
2019-02-02T09:46:43.220Z,11.13
2019-02-02T09:49:43.864Z,10.43
2019-02-02T09:55:42.098Z,7.23
2019-02-02T09:58:23.739Z,11.40
2019-02-02T10:01:13.317Z,5.87
2019-02-02T10:03:56.528Z,4.83
2019-02-02T10:09:54.105Z,6.90
2019-02-02T10:12:43.650Z,7.13
2019-02-02T10:15:26.412Z,4.83
2019-02-02T10:18:16.431Z,5.83
2019-02-02T10:21:04.215Z,5.47
2019-02-02T10:27:05.277Z,4.97
2019-02-02T10:29:47.194Z,4.83
2019-02-02T10:32:36.770Z,4.10
2019-02-02T10:35:20.234Z,4.73
2019-02-02T10:38:02.929Z,6.00
2019-02-02T10:40:52.475Z,4.77
2019-02-02T10:43:35.625Z,4.37
2019-02-02T10:46:17.938Z,4.93
2019-02-02T10:49:07.660Z,6.33
2019-02-02T10:51:57.171Z,5.07
2019-02-02T10:54:39.617Z,5.43
2019-02-02T10:57:29.135Z,5.87
2019-02-02T11:00:14.155Z,7.27
2019-02-02T11:03:03.710Z,4.60
2019-02-02T11:05:46.239Z,6.47
2019-02-02T11:08:37.205Z,4.30
2019-02-02T11:11:21.089Z,4.00
2019-02-02T11:14:30.795Z,4.20
2019-02-02T11:17:12.950Z,3.80
2019-02-02T11:23:03.663Z,4.83
2019-02-02T11:25:47.809Z,3.90
2019-02-02T11:28:37.615Z,5.60
2019-02-02T11:31:21.843Z,4.23
2019-02-02T11:37:04.765Z,5.13
2019-02-02T11:39:46.527Z,4.17
2019-02-02T11:42:36.065Z,4.10
2019-02-02T11:45:17.988Z,3.97
2019-02-02T11:48:07.589Z,7.47
2019-02-02T11:50:49.404Z,5.60
2019-02-02T11:53:39.142Z,4.30
2019-02-02T11:56:21.716Z,6.33
2019-02-02T12:02:49.592Z,4.33
2019-02-02T12:05:27.157Z,6.60
2019-02-02T12:08:35.708Z,5.23
2019-02-02T12:11:18.784Z,4.30
2019-02-02T12:17:18.109Z,4.70
2019-02-02T12:26:37.798Z,5.90
2019-02-02T12:29:20.249Z,5.07
2019-02-02T12:35:04.683Z,3.47
2019-02-02T12:41:31.406Z,4.50
2019-02-02T12:44:16.760Z,9.63
2019-02-02T12:47:02.240Z,4.90
2019-02-02T12:49:52.128Z,3.53
2019-02-02T12:52:45.912Z,3.40
2019-02-02T13:05:13.522Z,3.30
2019-02-02T13:08:05.332Z,4.53
2019-02-02T13:10:53.402Z,4.60
2019-02-02T13:13:37.732Z,3.07
2019-02-02T13:19:28.865Z,2.93
2019-02-02T13:22:18.725Z,3.43
2019-02-02T13:25:01.428Z,4.30
2019-02-02T13:27:51.091Z,3.83
2019-02-02T13:30:34.048Z,4.00
2019-02-02T13:33:42.477Z,4.03
2019-02-02T13:36:25.023Z,3.10
2019-02-02T13:39:14.655Z,4.00
2019-02-02T13:51:51.400Z,3.70
2019-02-02T13:54:34.436Z,3.90
2019-02-02T14:00:35.195Z,3.90
2019-02-02T14:03:19.583Z,4.37
2019-02-02T14:06:02.222Z,4.50
2019-02-02T14:08:51.796Z,4.77
2019-02-02T14:11:34.328Z,4.17
2019-02-02T14:14:23.911Z,3.80
2019-02-02T14:17:06.670Z,4.20
2019-02-02T14:23:04.574Z,4.23
2019-02-02T14:25:54.140Z,5.50
2019-02-02T14:28:36.781Z,4.77
2019-02-02T14:31:26.311Z,5.10
2019-02-02T14:34:14.602Z,4.17
2019-02-02T14:36:57.324Z,5.70
2019-02-02T14:39:49.215Z,4.13
2019-02-02T14:42:30.757Z,4.00
2019-02-02T14:46:00.452Z,3.87
2019-02-02T14:48:42.586Z,3.37
2019-02-02T14:51:32.083Z,3.30
2019-02-02T14:54:14.803Z,2.30
2019-02-02T14:57:04.321Z,2.70
2019-02-02T14:59:46.056Z,2.43
2019-02-02T15:02:35.613Z,2.10
2019-02-02T15:05:25.248Z,4.10
2019-02-02T15:08:07.419Z,3.37
2019-02-02T15:10:56.931Z,2.33
2019-02-02T15:13:38.647Z,2.60
2019-02-02T15:16:47.103Z,2.43
2019-02-02T15:19:28.951Z,2.80
2019-02-02T15:22:19.136Z,3.00
2019-02-02T15:25:01.272Z,1.77
2019-02-02T15:27:50.774Z,3.10
2019-02-02T15:30:33.036Z,3.10
2019-02-02T15:33:42.056Z,3.10
2019-02-02T15:36:24.374Z,3.73
2019-02-02T15:48:42.934Z,5.00
2019-02-02T15:54:23.857Z,9.17
2019-02-02T15:57:13.412Z,11.47
2019-02-02T15:59:55.649Z,13.40
2019-02-02T16:02:45.302Z,11.00
2019-02-02T16:05:28.153Z,10.10
2019-02-02T16:08:17.677Z,8.47
2019-02-02T16:11:00.036Z,6.47
2019-02-02T16:14:08.530Z,7.80
2019-02-02T16:16:50.621Z,8.97
2019-02-02T16:19:40.311Z,9.20
2019-02-02T16:22:22.432Z,8.67
2019-02-02T16:28:20.882Z,11.83
2019-02-02T16:31:10.462Z,12.50
2019-02-02T16:34:01.754Z,11.43
2019-02-02T16:39:45.402Z,11.13
2019-02-02T16:45:41.573Z,12.47
2019-02-02T16:48:31.391Z,11.97
2019-02-02T16:51:20.948Z,14.03
2019-02-02T16:54:03.192Z,15.23
2019-02-02T16:59:47.168Z,19.70
2019-02-02T17:02:36.744Z,16.90
2019-02-02T17:05:18.634Z,20.57
2019-02-02T17:08:08.180Z,17.97
2019-02-02T17:10:50.196Z,22.77
2019-02-02T17:13:39.735Z,25.53
2019-02-02T17:19:49.110Z,30.97
2019-02-02T17:22:31.524Z,28.67
2019-02-02T17:28:14.554Z,33.17
2019-02-02T17:34:07.168Z,35.83
2019-02-02T17:39:44.571Z,42.43
2019-02-02T17:42:34.150Z,42.73
2019-02-02T17:45:16.957Z,43.57
2019-02-02T17:48:46.442Z,58.03
2019-02-02T17:51:28.113Z,58.93
2019-02-02T17:54:17.639Z,49.73
2019-02-02T17:57:01.385Z,49.63
2019-02-02T17:59:44.077Z,49.93
2019-02-02T18:05:34.990Z,41.00
2019-02-02T18:08:16.734Z,47.97
2019-02-02T18:11:06.251Z,50.03
2019-02-02T18:13:50.448Z,53.27
2019-02-02T18:19:55.626Z,57.30
2019-02-02T18:22:37.932Z,56.33
2019-02-02T18:25:46.627Z,56.17
2019-02-02T18:28:29.499Z,60.27
2019-02-02T18:34:53.374Z,63.30
2019-02-02T18:37:35.066Z,60.03
2019-02-02T18:40:24.664Z,49.23
2019-02-02T18:43:07.742Z,58.87
2019-02-02T18:46:12.007Z,52.77
2019-02-02T18:48:41.949Z,53.57
2019-02-02T18:54:40.746Z,60.87
2019-02-02T18:57:49.410Z,62.07
2019-02-02T19:00:32.706Z,53.20
2019-02-02T19:06:30.608Z,58.63
2019-02-02T19:09:20.274Z,71.07
2019-02-02T19:12:02.176Z,83.83
2019-02-02T19:18:20.401Z,63.27
2019-02-02T19:21:03.833Z,60.60
2019-02-02T19:23:53.871Z,62.00
2019-02-02T19:26:36.291Z,61.87
2019-02-02T19:29:44.857Z,73.70
2019-02-02T19:32:29.223Z,66.27
2019-02-02T19:38:11.372Z,69.33
2019-02-02T19:47:43.912Z,74.47
2019-02-02T19:50:36.409Z,69.53
2019-02-02T19:53:20.895Z,71.67
2019-02-02T19:56:29.705Z,58.57
2019-02-02T20:11:57.687Z,67.13
2019-02-02T20:14:40.105Z,68.27
2019-02-02T20:17:29.774Z,68.63
2019-02-02T20:20:14.052Z,70.70
2019-02-02T20:23:03.725Z,75.67
2019-02-02T20:25:45.960Z,73.33
2019-02-02T20:28:35.518Z,78.80
2019-02-02T20:31:17.571Z,83.93
2019-02-02T20:34:40.870Z,73.57
2019-02-02T20:36:46.602Z,69.10
2019-02-02T20:42:30.201Z,52.63
2019-02-02T20:46:00.636Z,63.83
2019-02-02T20:48:44.990Z,55.30
2019-02-02T20:54:24.283Z,59.07
2019-02-02T21:03:39.314Z,55.73
2019-02-02T21:06:21.075Z,62.53
2019-02-02T21:12:44.557Z,58.63
2019-02-02T21:18:19.855Z,65.27
2019-02-02T21:21:10.032Z,59.77
2019-02-02T21:23:59.652Z,60.13
2019-02-02T21:27:08.142Z,58.40
2019-02-02T21:29:50.615Z,61.77
2019-02-02T21:32:32.741Z,63.63
2019-02-02T21:35:39.815Z,67.77
2019-02-02T21:38:31.307Z,64.90
2019-02-02T21:41:13.541Z,65.10
2019-02-02T21:44:03.175Z,70.37
2019-02-02T21:46:45.583Z,71.53
2019-02-02T21:49:27.721Z,69.83
2019-02-02T21:52:17.256Z,76.33
2019-02-02T21:55:02.232Z,84.83
2019-02-02T21:57:51.967Z,75.67
2019-02-02T22:00:36.463Z,79.83
2019-02-02T22:03:37.408Z,89.70
2019-02-02T22:06:27.434Z,75.00
2019-02-02T22:09:10.068Z,77.60
2019-02-02T22:11:59.788Z,95.63
2019-02-02T22:14:46.244Z,87.37
2019-02-02T22:20:37.295Z,93.10
2019-02-02T22:23:19.280Z,88.33
2019-02-02T22:26:08.845Z,107.93
2019-02-02T22:28:57.902Z,102.93
2019-02-02T22:31:44.823Z,91.23
2019-02-02T22:34:34.273Z,106.83
2019-02-02T22:37:16.424Z,112.93
2019-02-02T22:43:21.489Z,110.90
2019-02-02T22:46:11.025Z,138.23
2019-02-02T22:48:53.470Z,126.60
2019-02-02T22:51:43.111Z,123.07
2019-02-02T22:54:32.663Z,124.90
2019-02-02T22:57:15.465Z,153.53
2019-02-02T23:03:35.000Z,147.43
2019-02-02T23:07:03.704Z,147.67
2019-02-02T23:10:04.837Z,136.17
2019-02-02T23:13:39.358Z,155.00
2019-02-02T23:16:25.675Z,165.57
2019-02-02T23:19:17.808Z,153.77
2019-02-02T23:25:15.676Z,154.20
2019-02-02T23:28:05.228Z,217.60
2019-02-02T23:30:47.711Z,177.10
2019-02-02T23:36:31.020Z,223.13
2019-02-02T23:39:20.693Z,178.00
2019-02-02T23:42:02.689Z,183.73
2019-02-02T23:44:52.200Z,293.93
2019-02-02T23:47:36.501Z,241.20
2019-02-02T23:50:26.038Z,280.53
2019-02-02T23:53:08.581Z,259.57
2019-02-02T23:55:58.101Z,251.67
2019-02-02T23:58:42.685Z,249.07
